Aviation Digital Data Service (ADDS)

Output produced by TAFs form (0430 UTC 19 January 2017)
found at http://aviationweather.gov/adds/tafs/
 
KABQ 182352Z 1900/1924 01005KT P6SM VCSH BKN035 OVC070 
     FM190400 30007KT P6SM SCT030 BKN060 
     FM191200 23006KT P6SM BKN250 
     FM191800 27010KT P6SM SCT120 
     FM192100 28011G19KT P6SM BKN100